sensor_id;sensor_type;location;lat;lon;timestamp;pressure;altitude;pressure_sealevel;temperature;humidity
79461;BME280;68929;42.666;23.324;2023-04-15T00:00:53;93737.91;;;13.20;47.34
79461;BME280;68929;42.666;23.324;2023-04-15T00:03:19;93759.66;;;13.48;47.52
79461;BME280;68929;42.666;23.324;2023-04-15T00:05:44;93723.19;;;13.07;47.41
79461;BME280;68929;42.666;23.324;2023-04-15T00:08:10;93785.94;;;12.53;48.21
79461;BME280;68929;42.666;23.324;2023-04-15T00:10:35;93789.03;;;11.29;51.85
79461;BME280;68929;42.666;23.324;2023-04-15T00:13:01;93769.72;;;10.84;53.75
79461;BME280;68929;42.666;23.324;2023-04-15T00:15:27;93764.06;;;11.53;52.50
79461;BME280;68929;42.666;23.324;2023-04-15T00:17:52;93750.13;;;11.74;51.74
79461;BME280;68929;42.666;23.324;2023-04-15T00:20:18;93776.50;;;12.41;50.28
79461;BME280;68929;42.666;23.324;2023-04-15T00:22:43;93780.69;;;12.80;49.65
79461;BME280;68929;42.666;23.324;2023-04-15T00:25:08;93770.41;;;13.05;48.81
79461;BME280;68929;42.666;23.324;2023-04-15T00:27:37;93739.41;;;13.11;48.29
79461;BME280;68929;42.666;23.324;2023-04-15T00:30:03;93762.63;;;13.25;47.90
79461;BME280;68929;42.666;23.324;2023-04-15T00:32:29;93769.91;;;13.67;47.30
79461;BME280;68929;42.666;23.324;2023-04-15T00:34:55;93756.19;;;13.75;46.92
79461;BME280;68929;42.666;23.324;2023-04-15T00:37:20;93762.81;;;13.77;46.70
79461;BME280;68929;42.666;23.324;2023-04-15T00:39:46;93772.00;;;13.64;46.76
79461;BME280;68929;42.666;23.324;2023-04-15T00:42:12;93774.19;;;13.73;46.62
79461;BME280;68929;42.666;23.324;2023-04-15T00:44:37;93770.69;;;13.67;47.10
79461;BME280;68929;42.666;23.324;2023-04-15T00:47:03;93783.38;;;13.92;46.67
79461;BME280;68929;42.666;23.324;2023-04-15T00:49:30;93776.09;;;14.14;46.49
79461;BME280;68929;42.666;23.324;2023-04-15T00:51:56;93739.84;;;13.98;46.23
79461;BME280;68929;42.666;23.324;2023-04-15T00:54:21;93734.56;;;14.03;46.09
79461;BME280;68929;42.666;23.324;2023-04-15T00:56:47;93747.38;;;14.11;46.17
79461;BME280;68929;42.666;23.324;2023-04-15T00:59:13;93772.97;;;14.27;46.08
79461;BME280;68929;42.666;23.324;2023-04-15T01:01:39;93749.97;;;14.01;46.23
79461;BME280;68929;42.666;23.324;2023-04-15T01:04:05;93754.53;;;14.10;46.27
79461;BME280;68929;42.666;23.324;2023-04-15T01:06:31;93780.13;;;14.21;45.97
79461;BME280;68929;42.666;23.324;2023-04-15T01:08:58;93765.69;;;14.07;46.24
79461;BME280;68929;42.666;23.324;2023-04-15T01:11:24;93735.91;;;13.69;46.72
79461;BME280;68929;42.666;23.324;2023-04-15T01:13:50;93759.44;;;13.23;47.89
79461;BME280;68929;42.666;23.324;2023-04-15T01:16:17;93762.91;;;13.55;47.73
79461;BME280;68929;42.666;23.324;2023-04-15T01:18:43;93789.13;;;13.79;47.47
79461;BME280;68929;42.666;23.324;2023-04-15T01:21:08;93779.81;;;13.76;47.14
79461;BME280;68929;42.666;23.324;2023-04-15T01:23:36;93776.53;;;14.01;47.11
79461;BME280;68929;42.666;23.324;2023-04-15T01:26:03;93766.94;;;13.95;47.36
79461;BME280;68929;42.666;23.324;2023-04-15T01:28:29;93738.41;;;13.80;46.76
79461;BME280;68929;42.666;23.324;2023-04-15T01:31:08;93772.91;;;14.17;46.50
79461;BME280;68929;42.666;23.324;2023-04-15T01:33:35;93765.97;;;14.11;46.69
79461;BME280;68929;42.666;23.324;2023-04-15T01:36:01;93742.03;;;14.06;46.83
79461;BME280;68929;42.666;23.324;2023-04-15T01:38:27;93737.16;;;13.93;47.16
79461;BME280;68929;42.666;23.324;2023-04-15T01:40:53;93765.91;;;14.01;47.09
79461;BME280;68929;42.666;23.324;2023-04-15T01:43:18;93748.88;;;13.97;47.22
79461;BME280;68929;42.666;23.324;2023-04-15T01:45:44;93755.16;;;13.81;47.52
79461;BME280;68929;42.666;23.324;2023-04-15T01:48:13;93759.72;;;13.53;47.76
79461;BME280;68929;42.666;23.324;2023-04-15T01:50:38;93766.28;;;13.78;47.51
79461;BME280;68929;42.666;23.324;2023-04-15T01:53:04;93791.75;;;13.74;48.19
79461;BME280;68929;42.666;23.324;2023-04-15T01:55:29;93796.94;;;13.05;49.09
79461;BME280;68929;42.666;23.324;2023-04-15T01:57:55;93792.66;;;13.04;50.07
79461;BME280;68929;42.666;23.324;2023-04-15T02:00:21;93782.28;;;13.24;49.83
79461;BME280;68929;42.666;23.324;2023-04-15T02:02:47;93767.94;;;13.25;49.43
79461;BME280;68929;42.666;23.324;2023-04-15T02:05:12;93785.66;;;13.46;49.40
79461;BME280;68929;42.666;23.324;2023-04-15T02:07:38;93760.50;;;13.22;49.12
79461;BME280;68929;42.666;23.324;2023-04-15T02:10:04;93795.78;;;13.49;49.37
79461;BME280;68929;42.666;23.324;2023-04-15T02:12:29;93772.72;;;13.55;49.04
79461;BME280;68929;42.666;23.324;2023-04-15T02:14:55;93783.16;;;13.67;48.55
79461;BME280;68929;42.666;23.324;2023-04-15T02:17:20;93783.22;;;13.72;48.64
79461;BME280;68929;42.666;23.324;2023-04-15T02:19:46;93778.00;;;13.82;48.56
79461;BME280;68929;42.666;23.324;2023-04-15T02:22:12;93778.50;;;13.79;48.89
79461;BME280;68929;42.666;23.324;2023-04-15T02:24:42;93755.28;;;13.32;48.95
79461;BME280;68929;42.666;23.324;2023-04-15T02:27:08;93747.63;;;13.73;47.88
79461;BME280;68929;42.666;23.324;2023-04-15T02:29:33;93749.38;;;13.57;48.41
79461;BME280;68929;42.666;23.324;2023-04-15T02:31:59;93784.13;;;13.02;49.59
79461;BME280;68929;42.666;23.324;2023-04-15T02:34:25;93786.22;;;13.00;50.39
79461;BME280;68929;42.666;23.324;2023-04-15T02:36:51;93771.00;;;13.39;49.83
79461;BME280;68929;42.666;23.324;2023-04-15T02:39:21;93731.00;;;13.50;49.23
79461;BME280;68929;42.666;23.324;2023-04-15T02:41:46;93756.91;;;13.38;49.52
79461;BME280;68929;42.666;23.324;2023-04-15T02:44:16;93769.38;;;13.38;49.38
79461;BME280;68929;42.666;23.324;2023-04-15T02:46:44;93758.00;;;13.42;49.05
79461;BME280;68929;42.666;23.324;2023-04-15T02:49:13;93774.03;;;13.52;49.32
79461;BME280;68929;42.666;23.324;2023-04-15T02:51:38;93768.16;;;13.45;49.29
79461;BME280;68929;42.666;23.324;2023-04-15T02:54:04;93772.09;;;13.75;48.02
79461;BME280;68929;42.666;23.324;2023-04-15T02:56:29;93771.38;;;13.84;48.27
79461;BME280;68929;42.666;23.324;2023-04-15T02:58:55;93752.94;;;13.09;49.37
79461;BME280;68929;42.666;23.324;2023-04-15T03:01:20;93754.59;;;11.90;52.82
79461;BME280;68929;42.666;23.324;2023-04-15T03:03:46;93758.22;;;12.23;51.92
79461;BME280;68929;42.666;23.324;2023-04-15T03:06:11;93795.69;;;12.31;52.34
79461;BME280;68929;42.666;23.324;2023-04-15T03:08:37;93781.50;;;12.21;52.71
79461;BME280;68929;42.666;23.324;2023-04-15T03:11:03;93756.84;;;12.37;50.90
79461;BME280;68929;42.666;23.324;2023-04-15T03:13:29;93768.59;;;12.89;49.50
79461;BME280;68929;42.666;23.324;2023-04-15T03:15:54;93817.28;;;12.40;51.78
79461;BME280;68929;42.666;23.324;2023-04-15T03:18:19;93798.81;;;12.45;51.81
79461;BME280;68929;42.666;23.324;2023-04-15T03:20:45;93804.81;;;12.78;50.51
79461;BME280;68929;42.666;23.324;2023-04-15T03:23:11;93788.31;;;12.98;49.87
79461;BME280;68929;42.666;23.324;2023-04-15T03:25:36;93777.34;;;13.11;49.00
79461;BME280;68929;42.666;23.324;2023-04-15T03:28:02;93812.16;;;12.93;50.15
79461;BME280;68929;42.666;23.324;2023-04-15T03:30:27;93807.66;;;12.72;50.24
79461;BME280;68929;42.666;23.324;2023-04-15T03:32:53;93800.59;;;12.61;50.43
79461;BME280;68929;42.666;23.324;2023-04-15T03:35:18;93820.16;;;12.98;50.03
79461;BME280;68929;42.666;23.324;2023-04-15T03:37:43;93817.88;;;12.63;49.79
79461;BME280;68929;42.666;23.324;2023-04-15T03:40:09;93822.50;;;12.95;49.54
79461;BME280;68929;42.666;23.324;2023-04-15T03:42:35;93840.03;;;12.74;49.94
79461;BME280;68929;42.666;23.324;2023-04-15T03:45:00;93825.94;;;12.52;49.83
79461;BME280;68929;42.666;23.324;2023-04-15T03:47:26;93822.00;;;12.76;49.58
79461;BME280;68929;42.666;23.324;2023-04-15T03:49:51;93841.13;;;12.78;49.80
79461;BME280;68929;42.666;23.324;2023-04-15T03:52:16;93833.72;;;12.80;49.08
79461;BME280;68929;42.666;23.324;2023-04-15T03:54:42;93863.44;;;12.60;49.98
79461;BME280;68929;42.666;23.324;2023-04-15T03:57:07;93840.53;;;12.54;50.25
79461;BME280;68929;42.666;23.324;2023-04-15T03:59:33;93796.28;;;12.17;50.73
79461;BME280;68929;42.666;23.324;2023-04-15T04:01:58;93854.38;;;12.40;50.82
79461;BME280;68929;42.666;23.324;2023-04-15T04:04:24;93841.88;;;12.35;50.74
79461;BME280;68929;42.666;23.324;2023-04-15T04:06:49;93840.09;;;12.41;50.95
79461;BME280;68929;42.666;23.324;2023-04-15T04:09:15;93830.50;;;12.01;51.30
79461;BME280;68929;42.666;23.324;2023-04-15T04:11:40;93839.78;;;12.21;51.28
79461;BME280;68929;42.666;23.324;2023-04-15T04:14:05;93835.56;;;11.86;51.97
79461;BME280;68929;42.666;23.324;2023-04-15T04:16:31;93854.72;;;12.27;51.17
79461;BME280;68929;42.666;23.324;2023-04-15T04:18:56;93846.88;;;12.15;51.73
79461;BME280;68929;42.666;23.324;2023-04-15T04:21:22;93862.56;;;12.55;50.89
79461;BME280;68929;42.666;23.324;2023-04-15T04:23:47;93841.41;;;12.22;51.22
79461;BME280;68929;42.666;23.324;2023-04-15T04:26:13;93860.53;;;12.24;51.66
79461;BME280;68929;42.666;23.324;2023-04-15T04:28:38;93859.91;;;12.55;51.22
79461;BME280;68929;42.666;23.324;2023-04-15T04:31:05;93867.53;;;12.68;51.03
79461;BME280;68929;42.666;23.324;2023-04-15T04:33:32;93863.81;;;12.69;50.79
79461;BME280;68929;42.666;23.324;2023-04-15T04:35:57;93839.25;;;12.57;50.52
79461;BME280;68929;42.666;23.324;2023-04-15T04:38:22;93860.69;;;12.72;50.80
79461;BME280;68929;42.666;23.324;2023-04-15T04:40:48;93877.44;;;12.77;50.53
79461;BME280;68929;42.666;23.324;2023-04-15T04:43:13;93861.16;;;13.07;49.76
79461;BME280;68929;42.666;23.324;2023-04-15T04:45:40;93871.88;;;13.17;49.50
79461;BME280;68929;42.666;23.324;2023-04-15T04:48:05;93853.56;;;13.42;48.46
79461;BME280;68929;42.666;23.324;2023-04-15T04:50:33;93867.72;;;13.75;47.89
79461;BME280;68929;42.666;23.324;2023-04-15T04:52:59;93872.59;;;13.88;47.84
79461;BME280;68929;42.666;23.324;2023-04-15T04:55:25;93890.75;;;13.96;47.27
79461;BME280;68929;42.666;23.324;2023-04-15T04:57:51;93854.88;;;13.67;47.59
79461;BME280;68929;42.666;23.324;2023-04-15T05:00:16;93872.81;;;13.54;47.82
79461;BME280;68929;42.666;23.324;2023-04-15T05:02:43;93891.38;;;13.49;48.04
79461;BME280;68929;42.666;23.324;2023-04-15T05:05:09;93871.69;;;13.24;48.39
79461;BME280;68929;42.666;23.324;2023-04-15T05:07:36;93891.22;;;13.39;48.26
79461;BME280;68929;42.666;23.324;2023-04-15T05:10:02;93910.09;;;13.64;48.08
79461;BME280;68929;42.666;23.324;2023-04-15T05:12:31;93885.69;;;13.41;47.68
79461;BME280;68929;42.666;23.324;2023-04-15T05:14:56;93918.81;;;13.60;48.20
79461;BME280;68929;42.666;23.324;2023-04-15T05:17:22;93929.22;;;13.67;48.15
79461;BME280;68929;42.666;23.324;2023-04-15T05:19:47;93904.31;;;13.46;48.05
79461;BME280;68929;42.666;23.324;2023-04-15T05:22:13;93915.38;;;13.38;47.86
79461;BME280;68929;42.666;23.324;2023-04-15T05:24:38;93909.06;;;13.44;48.05
79461;BME280;68929;42.666;23.324;2023-04-15T05:27:03;93852.50;;;12.95;47.08
79461;BME280;68929;42.666;23.324;2023-04-15T05:29:29;93926.84;;;13.43;47.37
79461;BME280;68929;42.666;23.324;2023-04-15T05:31:55;93903.47;;;13.40;46.86
79461;BME280;68929;42.666;23.324;2023-04-15T05:34:20;93908.41;;;13.53;46.22
79461;BME280;68929;42.666;23.324;2023-04-15T05:36:46;93915.94;;;13.67;46.45
79461;BME280;68929;42.666;23.324;2023-04-15T05:39:12;93900.25;;;13.87;46.22
79461;BME280;68929;42.666;23.324;2023-04-15T05:41:37;93879.84;;;13.66;46.34
79461;BME280;68929;42.666;23.324;2023-04-15T05:44:03;93893.69;;;13.73;46.62
79461;BME280;68929;42.666;23.324;2023-04-15T05:46:28;93879.47;;;13.84;45.94
79461;BME280;68929;42.666;23.324;2023-04-15T05:48:54;93926.22;;;14.38;45.74
79461;BME280;68929;42.666;23.324;2023-04-15T05:51:19;93901.75;;;14.36;45.08
79461;BME280;68929;42.666;23.324;2023-04-15T05:53:45;93921.44;;;14.35;44.87
79461;BME280;68929;42.666;23.324;2023-04-15T05:56:10;93902.81;;;13.77;46.67
79461;BME280;68929;42.666;23.324;2023-04-15T05:58:36;93910.28;;;14.38;46.09
79461;BME280;68929;42.666;23.324;2023-04-15T06:01:03;93919.41;;;14.52;45.45
79461;BME280;68929;42.666;23.324;2023-04-15T06:03:29;93919.69;;;14.24;45.86
79461;BME280;68929;42.666;23.324;2023-04-15T06:05:54;93921.16;;;14.68;45.16
79461;BME280;68929;42.666;23.324;2023-04-15T06:08:20;93920.75;;;14.91;44.41
79461;BME280;68929;42.666;23.324;2023-04-15T06:10:46;93909.22;;;14.76;44.23
79461;BME280;68929;42.666;23.324;2023-04-15T06:13:11;93931.16;;;14.98;44.61
79461;BME280;68929;42.666;23.324;2023-04-15T06:15:37;93941.97;;;14.81;44.50
79461;BME280;68929;42.666;23.324;2023-04-15T06:18:03;93939.78;;;14.73;44.81
79461;BME280;68929;42.666;23.324;2023-04-15T06:20:28;93920.13;;;14.74;44.39
79461;BME280;68929;42.666;23.324;2023-04-15T06:22:53;93929.28;;;14.93;44.51
79461;BME280;68929;42.666;23.324;2023-04-15T06:25:19;93908.22;;;14.87;44.36
79461;BME280;68929;42.666;23.324;2023-04-15T06:27:45;93947.78;;;15.20;44.03
79461;BME280;68929;42.666;23.324;2023-04-15T06:30:10;93953.06;;;15.10;44.34
79461;BME280;68929;42.666;23.324;2023-04-15T06:32:36;93925.44;;;14.79;44.37
79461;BME280;68929;42.666;23.324;2023-04-15T06:35:01;93953.97;;;15.31;43.89
79461;BME280;68929;42.666;23.324;2023-04-15T06:37:28;93929.78;;;15.42;43.34
79461;BME280;68929;42.666;23.324;2023-04-15T06:39:53;93944.50;;;15.50;42.95
79461;BME280;68929;42.666;23.324;2023-04-15T06:42:18;93941.88;;;15.65;42.89
79461;BME280;68929;42.666;23.324;2023-04-15T06:44:44;93884.06;;;14.98;42.75
79461;BME280;68929;42.666;23.324;2023-04-15T06:47:09;93961.56;;;15.54;42.40
79461;BME280;68929;42.666;23.324;2023-04-15T06:49:37;93966.38;;;15.57;43.04
79461;BME280;68929;42.666;23.324;2023-04-15T06:52:03;93963.78;;;15.82;42.18
79461;BME280;68929;42.666;23.324;2023-04-15T06:54:29;93956.75;;;14.67;43.23
79461;BME280;68929;42.666;23.324;2023-04-15T06:56:55;93955.19;;;15.08;43.34
79461;BME280;68929;42.666;23.324;2023-04-15T06:59:20;93941.34;;;15.58;42.61
79461;BME280;68929;42.666;23.324;2023-04-15T07:01:46;93949.94;;;15.80;42.15
79461;BME280;68929;42.666;23.324;2023-04-15T07:04:11;93951.59;;;16.01;41.47
79461;BME280;68929;42.666;23.324;2023-04-15T07:06:37;93968.00;;;15.68;42.49
79461;BME280;68929;42.666;23.324;2023-04-15T07:09:03;93964.09;;;16.00;40.83
79461;BME280;68929;42.666;23.324;2023-04-15T07:11:29;93945.63;;;15.64;42.27
79461;BME280;68929;42.666;23.324;2023-04-15T07:13:56;93962.47;;;15.84;42.40
79461;BME280;68929;42.666;23.324;2023-04-15T07:16:22;93958.16;;;15.68;42.51
79461;BME280;68929;42.666;23.324;2023-04-15T07:18:48;93961.03;;;15.57;42.70
79461;BME280;68929;42.666;23.324;2023-04-15T07:21:13;93968.53;;;15.65;42.61
79461;BME280;68929;42.666;23.324;2023-04-15T07:23:39;93960.31;;;15.76;42.04
79461;BME280;68929;42.666;23.324;2023-04-15T07:26:04;93938.75;;;15.83;41.50
79461;BME280;68929;42.666;23.324;2023-04-15T07:28:30;93965.38;;;15.78;42.21
79461;BME280;68929;42.666;23.324;2023-04-15T07:30:55;93950.09;;;15.58;42.20
79461;BME280;68929;42.666;23.324;2023-04-15T07:33:24;93986.84;;;16.33;41.31
79461;BME280;68929;42.666;23.324;2023-04-15T07:35:49;93967.69;;;16.51;40.58
79461;BME280;68929;42.666;23.324;2023-04-15T07:38:15;93950.59;;;16.37;40.20
79461;BME280;68929;42.666;23.324;2023-04-15T07:40:40;93954.84;;;16.33;40.75
79461;BME280;68929;42.666;23.324;2023-04-15T07:43:06;93977.03;;;16.64;40.75
79461;BME280;68929;42.666;23.324;2023-04-15T07:45:33;93977.28;;;16.67;40.76
79461;BME280;68929;42.666;23.324;2023-04-15T07:48:00;93963.97;;;16.62;40.62
79461;BME280;68929;42.666;23.324;2023-04-15T07:50:26;93969.28;;;16.83;40.33
79461;BME280;68929;42.666;23.324;2023-04-15T07:52:51;93959.69;;;16.66;39.95
79461;BME280;68929;42.666;23.324;2023-04-15T07:55:17;93968.44;;;16.32;40.22
79461;BME280;68929;42.666;23.324;2023-04-15T07:57:45;93988.94;;;16.21;41.61
79461;BME280;68929;42.666;23.324;2023-04-15T08:00:12;93985.31;;;16.72;40.28
79461;BME280;68929;42.666;23.324;2023-04-15T08:02:37;93973.03;;;16.92;40.01
79461;BME280;68929;42.666;23.324;2023-04-15T08:05:03;93964.97;;;17.07;39.55
79461;BME280;68929;42.666;23.324;2023-04-15T08:07:29;93968.72;;;17.21;38.45
79461;BME280;68929;42.666;23.324;2023-04-15T08:09:55;93976.22;;;16.84;37.77
79461;BME280;68929;42.666;23.324;2023-04-15T08:12:20;93980.47;;;16.39;38.28
79461;BME280;68929;42.666;23.324;2023-04-15T08:14:46;93981.19;;;16.10;39.82
79461;BME280;68929;42.666;23.324;2023-04-15T08:17:12;93991.00;;;15.89;39.58
79461;BME280;68929;42.666;23.324;2023-04-15T08:19:39;93991.88;;;16.10;38.91
79461;BME280;68929;42.666;23.324;2023-04-15T08:22:04;93979.97;;;16.83;38.78
79461;BME280;68929;42.666;23.324;2023-04-15T08:24:30;93970.81;;;17.34;38.06
79461;BME280;68929;42.666;23.324;2023-04-15T08:26:56;93964.84;;;17.77;35.60
79461;BME280;68929;42.666;23.324;2023-04-15T08:29:22;93973.78;;;18.06;36.87
79461;BME280;68929;42.666;23.324;2023-04-15T08:31:47;93985.34;;;18.46;35.85
79461;BME280;68929;42.666;23.324;2023-04-15T08:34:13;93976.56;;;18.35;34.99
79461;BME280;68929;42.666;23.324;2023-04-15T08:36:39;93979.00;;;18.26;35.25
79461;BME280;68929;42.666;23.324;2023-04-15T08:39:05;93982.13;;;18.38;36.01
79461;BME280;68929;42.666;23.324;2023-04-15T08:41:45;93957.22;;;18.04;37.19
79461;BME280;68929;42.666;23.324;2023-04-15T08:44:14;93977.50;;;18.10;36.57
79461;BME280;68929;42.666;23.324;2023-04-15T08:46:40;93978.72;;;17.79;34.50
79461;BME280;68929;42.666;23.324;2023-04-15T08:49:10;93953.50;;;17.90;33.92
79461;BME280;68929;42.666;23.324;2023-04-15T08:51:38;93934.84;;;17.80;33.81
79461;BME280;68929;42.666;23.324;2023-04-15T08:54:04;93962.88;;;18.42;35.46
79461;BME280;68929;42.666;23.324;2023-04-15T08:56:30;93961.50;;;18.83;34.72
79461;BME280;68929;42.666;23.324;2023-04-15T08:58:59;93967.59;;;18.55;34.52
79461;BME280;68929;42.666;23.324;2023-04-15T09:01:25;93955.91;;;18.46;35.43
79461;BME280;68929;42.666;23.324;2023-04-15T09:03:51;93947.88;;;18.41;32.76
79461;BME280;68929;42.666;23.324;2023-04-15T09:06:17;93946.28;;;18.40;29.82
79461;BME280;68929;42.666;23.324;2023-04-15T09:08:43;93959.25;;;18.22;30.44
79461;BME280;68929;42.666;23.324;2023-04-15T09:11:09;93928.78;;;18.18;35.53
79461;BME280;68929;42.666;23.324;2023-04-15T09:13:35;93956.94;;;18.50;34.71
79461;BME280;68929;42.666;23.324;2023-04-15T09:16:01;93936.28;;;18.55;35.43
79461;BME280;68929;42.666;23.324;2023-04-15T09:18:32;93949.91;;;18.59;34.30
79461;BME280;68929;42.666;23.324;2023-04-15T09:21:10;93949.63;;;18.94;33.83
79461;BME280;68929;42.666;23.324;2023-04-15T09:23:38;93934.72;;;18.83;34.14
79461;BME280;68929;42.666;23.324;2023-04-15T09:26:04;93918.66;;;18.83;34.04
79461;BME280;68929;42.666;23.324;2023-04-15T09:28:30;93921.47;;;19.25;33.84
79461;BME280;68929;42.666;23.324;2023-04-15T09:30:57;93915.84;;;18.98;32.63
79461;BME280;68929;42.666;23.324;2023-04-15T09:33:23;93940.97;;;19.31;31.95
79461;BME280;68929;42.666;23.324;2023-04-15T09:35:58;93945.22;;;19.60;28.53
79461;BME280;68929;42.666;23.324;2023-04-15T09:38:23;93927.72;;;19.15;30.14
79461;BME280;68929;42.666;23.324;2023-04-15T09:40:49;93927.81;;;19.05;31.68
79461;BME280;68929;42.666;23.324;2023-04-15T09:43:15;93940.06;;;19.11;31.64
79461;BME280;68929;42.666;23.324;2023-04-15T09:45:49;93935.13;;;19.52;29.65
79461;BME280;68929;42.666;23.324;2023-04-15T09:48:24;93934.03;;;19.77;31.27
79461;BME280;68929;42.666;23.324;2023-04-15T09:50:59;93916.75;;;19.64;30.14
79461;BME280;68929;42.666;23.324;2023-04-15T09:53:26;93929.81;;;19.47;32.04
79461;BME280;68929;42.666;23.324;2023-04-15T09:55:56;93929.69;;;19.57;32.35
79461;BME280;68929;42.666;23.324;2023-04-15T09:58:34;93943.31;;;19.84;28.12
79461;BME280;68929;42.666;23.324;2023-04-15T10:01:04;93911.78;;;19.29;26.29
79461;BME280;68929;42.666;23.324;2023-04-15T10:03:33;93946.03;;;19.37;27.34
79461;BME280;68929;42.666;23.324;2023-04-15T10:06:02;93951.72;;;19.54;27.56
79461;BME280;68929;42.666;23.324;2023-04-15T10:08:32;93945.78;;;19.57;28.56
79461;BME280;68929;42.666;23.324;2023-04-15T10:11:02;93949.50;;;19.33;26.61
79461;BME280;68929;42.666;23.324;2023-04-15T10:13:29;93948.19;;;19.35;29.43
79461;BME280;68929;42.666;23.324;2023-04-15T10:16:13;93928.41;;;19.97;27.88
79461;BME280;68929;42.666;23.324;2023-04-15T10:18:44;93923.81;;;19.55;27.05
79461;BME280;68929;42.666;23.324;2023-04-15T10:21:10;93906.41;;;19.29;28.88
79461;BME280;68929;42.666;23.324;2023-04-15T10:23:38;93897.88;;;19.27;27.52
79461;BME280;68929;42.666;23.324;2023-04-15T10:26:04;93908.38;;;19.47;28.74
79461;BME280;68929;42.666;23.324;2023-04-15T10:28:30;93919.16;;;20.27;25.61
79461;BME280;68929;42.666;23.324;2023-04-15T10:30:56;93896.72;;;20.55;25.74
79461;BME280;68929;42.666;23.324;2023-04-15T10:33:23;93893.22;;;20.87;23.26
79461;BME280;68929;42.666;23.324;2023-04-15T10:35:50;93893.22;;;20.73;24.98
79461;BME280;68929;42.666;23.324;2023-04-15T10:41:20;93899.97;;;20.84;26.99
79461;BME280;68929;42.666;23.324;2023-04-15T10:44:02;93906.88;;;21.09;26.12
79461;BME280;68929;42.666;23.324;2023-04-15T10:46:41;93903.28;;;21.95;25.17
79461;BME280;68929;42.666;23.324;2023-04-15T10:49:15;93898.00;;;22.03;23.31
79461;BME280;68929;42.666;23.324;2023-04-15T10:51:45;93891.28;;;20.92;24.46
79461;BME280;68929;42.666;23.324;2023-04-15T10:54:16;93900.06;;;20.47;25.65
79461;BME280;68929;42.666;23.324;2023-04-15T10:56:44;93893.53;;;20.16;26.37
79461;BME280;68929;42.666;23.324;2023-04-15T10:59:15;93888.91;;;20.40;23.66
79461;BME280;68929;42.666;23.324;2023-04-15T11:01:55;93887.97;;;21.55;25.13
79461;BME280;68929;42.666;23.324;2023-04-15T11:04:50;93886.31;;;22.79;22.33
79461;BME280;68929;42.666;23.324;2023-04-15T11:08:14;93878.88;;;22.05;23.66
79461;BME280;68929;42.666;23.324;2023-04-15T11:12:59;93898.50;;;21.10;22.31
79461;BME280;68929;42.666;23.324;2023-04-15T11:15:40;93899.97;;;20.84;24.86
79461;BME280;68929;42.666;23.324;2023-04-15T11:18:20;93896.34;;;21.94;23.47
79461;BME280;68929;42.666;23.324;2023-04-15T11:20:50;93895.72;;;22.68;22.94
79461;BME280;68929;42.666;23.324;2023-04-15T11:23:17;93881.59;;;22.49;23.06
79461;BME280;68929;42.666;23.324;2023-04-15T11:25:43;93878.34;;;22.74;22.78
79461;BME280;68929;42.666;23.324;2023-04-15T11:28:10;93891.75;;;23.97;21.81
79461;BME280;68929;42.666;23.324;2023-04-15T11:30:37;93868.81;;;23.30;22.70
79461;BME280;68929;42.666;23.324;2023-04-15T11:33:07;93888.44;;;22.11;22.83
79461;BME280;68929;42.666;23.324;2023-04-15T11:35:34;93876.38;;;22.08;23.90
79461;BME280;68929;42.666;23.324;2023-04-15T11:38:04;93894.06;;;21.87;23.20
79461;BME280;68929;42.666;23.324;2023-04-15T11:40:30;93885.41;;;22.48;23.10
79461;BME280;68929;42.666;23.324;2023-04-15T11:43:17;93892.22;;;22.32;21.18
79461;BME280;68929;42.666;23.324;2023-04-15T11:45:59;93891.41;;;22.59;19.10
79461;BME280;68929;42.666;23.324;2023-04-15T11:48:33;93878.44;;;22.91;22.55
79461;BME280;68929;42.666;23.324;2023-04-15T11:56:22;93878.72;;;21.88;22.33
79461;BME280;68929;42.666;23.324;2023-04-15T11:58:52;93875.50;;;21.18;24.06
79461;BME280;68929;42.666;23.324;2023-04-15T12:01:17;93886.41;;;20.62;23.27
79461;BME280;68929;42.666;23.324;2023-04-15T12:03:47;93870.00;;;21.09;22.96
79461;BME280;68929;42.666;23.324;2023-04-15T12:06:20;93869.72;;;20.65;23.44
79461;BME280;68929;42.666;23.324;2023-04-15T12:11:12;93862.25;;;21.89;22.44
79461;BME280;68929;42.666;23.324;2023-04-15T12:14:04;93887.56;;;21.47;20.86
79461;BME280;68929;42.666;23.324;2023-04-15T12:16:28;93861.38;;;21.53;20.81
79461;BME280;68929;42.666;23.324;2023-04-15T12:18:58;93875.63;;;21.67;24.27
79461;BME280;68929;42.666;23.324;2023-04-15T12:21:25;93889.47;;;21.88;21.63
79461;BME280;68929;42.666;23.324;2023-04-15T12:23:54;93874.00;;;21.80;20.98
79461;BME280;68929;42.666;23.324;2023-04-15T12:26:28;93878.81;;;22.54;21.43
79461;BME280;68929;42.666;23.324;2023-04-15T12:29:05;93881.03;;;22.96;21.52
79461;BME280;68929;42.666;23.324;2023-04-15T12:31:32;93870.84;;;23.24;22.23
79461;BME280;68929;42.666;23.324;2023-04-15T12:33:58;93880.28;;;22.82;22.74
79461;BME280;68929;42.666;23.324;2023-04-15T12:36:25;93894.81;;;21.74;23.58
79461;BME280;68929;42.666;23.324;2023-04-15T12:38:51;93889.19;;;21.48;22.08
79461;BME280;68929;42.666;23.324;2023-04-15T12:41:16;93869.19;;;20.95;23.10
79461;BME280;68929;42.666;23.324;2023-04-15T12:43:45;93889.94;;;21.49;26.03
79461;BME280;68929;42.666;23.324;2023-04-15T12:46:11;93897.91;;;21.68;23.79
79461;BME280;68929;42.666;23.324;2023-04-15T12:48:37;93887.56;;;21.75;24.70
79461;BME280;68929;42.666;23.324;2023-04-15T12:51:02;93878.53;;;22.20;22.17
79461;BME280;68929;42.666;23.324;2023-04-15T12:53:28;93892.94;;;22.02;23.86
79461;BME280;68929;42.666;23.324;2023-04-15T12:55:53;93872.00;;;21.99;23.69
79461;BME280;68929;42.666;23.324;2023-04-15T12:58:20;93882.56;;;22.09;21.72
79461;BME280;68929;42.666;23.324;2023-04-15T13:00:45;93875.59;;;22.66;22.25
79461;BME280;68929;42.666;23.324;2023-04-15T13:03:11;93895.19;;;23.33;21.97